sensor_id;sensor_type;location;lat;lon;timestamp;P1;durP1;ratioP1;P2;durP2;ratioP2
59306;SDS011;47983;53.016;-2.260;2022-12-05T00:03:54;7.43;;;5.47;;
59306;SDS011;47983;53.016;-2.260;2022-12-05T00:06:24;8.15;;;4.70;;
59306;SDS011;47983;53.016;-2.260;2022-12-05T00:08:52;11.20;;;5.77;;
59306;SDS011;47983;53.016;-2.260;2022-12-05T00:11:21;9.45;;;5.47;;
59306;SDS011;47983;53.016;-2.260;2022-12-05T00:13:52;12.32;;;5.78;;
59306;SDS011;47983;53.016;-2.260;2022-12-05T00:18:50;11.52;;;4.75;;
59306;SDS011;47983;53.016;-2.260;2022-12-05T00:21:19;9.43;;;5.47;;
59306;SDS011;47983;53.016;-2.260;2022-12-05T00:23:50;11.55;;;5.55;;
59306;SDS011;47983;53.016;-2.260;2022-12-05T00:26:19;10.00;;;5.18;;
59306;SDS011;47983;53.016;-2.260;2022-12-05T00:28:47;9.15;;;5.13;;
59306;SDS011;47983;53.016;-2.260;2022-12-05T00:31:16;10.27;;;4.72;;
59306;SDS011;47983;53.016;-2.260;2022-12-05T00:33:48;9.35;;;5.25;;
59306;SDS011;47983;53.016;-2.260;2022-12-05T00:36:21;10.40;;;5.60;;
59306;SDS011;47983;53.016;-2.260;2022-12-05T00:38:51;9.93;;;5.03;;
59306;SDS011;47983;53.016;-2.260;2022-12-05T00:41:20;11.40;;;5.90;;
59306;SDS011;47983;53.016;-2.260;2022-12-05T00:43:50;9.65;;;5.82;;
59306;SDS011;47983;53.016;-2.260;2022-12-05T00:46:21;12.48;;;6.00;;
59306;SDS011;47983;53.016;-2.260;2022-12-05T00:48:54;12.13;;;6.72;;
59306;SDS011;47983;53.016;-2.260;2022-12-05T00:51:23;11.77;;;6.30;;
59306;SDS011;47983;53.016;-2.260;2022-12-05T00:53:59;12.70;;;6.30;;
59306;SDS011;47983;53.016;-2.260;2022-12-05T00:56:28;12.65;;;6.60;;
59306;SDS011;47983;53.016;-2.260;2022-12-05T00:58:57;17.70;;;6.30;;
59306;SDS011;47983;53.016;-2.260;2022-12-05T01:01:28;16.30;;;6.38;;
59306;SDS011;47983;53.016;-2.260;2022-12-05T01:04:08;12.63;;;6.25;;
59306;SDS011;47983;53.016;-2.260;2022-12-05T01:06:37;12.90;;;6.43;;
59306;SDS011;47983;53.016;-2.260;2022-12-05T01:09:06;10.45;;;5.90;;
59306;SDS011;47983;53.016;-2.260;2022-12-05T01:11:34;18.00;;;6.67;;
59306;SDS011;47983;53.016;-2.260;2022-12-05T01:14:14;12.38;;;6.43;;
59306;SDS011;47983;53.016;-2.260;2022-12-05T01:16:44;14.60;;;6.97;;
59306;SDS011;47983;53.016;-2.260;2022-12-05T01:21:49;15.45;;;6.85;;
59306;SDS011;47983;53.016;-2.260;2022-12-05T01:24:17;12.43;;;6.30;;
59306;SDS011;47983;53.016;-2.260;2022-12-05T01:26:45;13.68;;;6.40;;
59306;SDS011;47983;53.016;-2.260;2022-12-05T01:29:14;16.98;;;5.93;;
59306;SDS011;47983;53.016;-2.260;2022-12-05T01:34:11;17.88;;;6.55;;
59306;SDS011;47983;53.016;-2.260;2022-12-05T01:36:41;17.17;;;7.43;;
59306;SDS011;47983;53.016;-2.260;2022-12-05T01:39:10;13.32;;;6.55;;
59306;SDS011;47983;53.016;-2.260;2022-12-05T01:46:44;15.55;;;7.03;;
59306;SDS011;47983;53.016;-2.260;2022-12-05T01:51:49;12.43;;;6.70;;
59306;SDS011;47983;53.016;-2.260;2022-12-05T01:54:19;15.73;;;6.03;;
59306;SDS011;47983;53.016;-2.260;2022-12-05T01:56:49;14.55;;;5.93;;
59306;SDS011;47983;53.016;-2.260;2022-12-05T01:59:26;14.02;;;6.57;;
59306;SDS011;47983;53.016;-2.260;2022-12-05T02:01:56;17.85;;;6.53;;
59306;SDS011;47983;53.016;-2.260;2022-12-05T02:04:24;15.32;;;6.53;;
59306;SDS011;47983;53.016;-2.260;2022-12-05T02:06:53;14.23;;;6.05;;
59306;SDS011;47983;53.016;-2.260;2022-12-05T02:09:21;33.90;;;8.38;;
59306;SDS011;47983;53.016;-2.260;2022-12-05T02:11:53;12.40;;;6.20;;
59306;SDS011;47983;53.016;-2.260;2022-12-05T02:17:14;11.23;;;5.22;;
59306;SDS011;47983;53.016;-2.260;2022-12-05T02:28:36;9.43;;;5.95;;
59306;SDS011;47983;53.016;-2.260;2022-12-05T02:31:15;11.02;;;5.25;;
59306;SDS011;47983;53.016;-2.260;2022-12-05T02:36:39;10.55;;;4.97;;
59306;SDS011;47983;53.016;-2.260;2022-12-05T02:44:29;11.80;;;5.55;;
59306;SDS011;47983;53.016;-2.260;2022-12-05T02:47:09;10.85;;;5.80;;
59306;SDS011;47983;53.016;-2.260;2022-12-05T02:49:39;13.13;;;5.15;;
59306;SDS011;47983;53.016;-2.260;2022-12-05T02:52:09;13.52;;;5.45;;
59306;SDS011;47983;53.016;-2.260;2022-12-05T02:54:40;11.90;;;5.22;;
59306;SDS011;47983;53.016;-2.260;2022-12-05T02:57:10;13.00;;;5.28;;
59306;SDS011;47983;53.016;-2.260;2022-12-05T02:59:39;9.15;;;4.90;;
59306;SDS011;47983;53.016;-2.260;2022-12-05T03:02:07;8.90;;;4.43;;
59306;SDS011;47983;53.016;-2.260;2022-12-05T03:04:48;11.65;;;4.70;;
59306;SDS011;47983;53.016;-2.260;2022-12-05T03:07:16;9.95;;;4.75;;
59306;SDS011;47983;53.016;-2.260;2022-12-05T03:09:47;12.15;;;4.88;;
59306;SDS011;47983;53.016;-2.260;2022-12-05T03:12:31;11.95;;;4.85;;
59306;SDS011;47983;53.016;-2.260;2022-12-05T03:15:14;8.65;;;5.03;;
59306;SDS011;47983;53.016;-2.260;2022-12-05T03:17:52;8.98;;;5.10;;
59306;SDS011;47983;53.016;-2.260;2022-12-05T03:20:33;8.77;;;4.75;;
59306;SDS011;47983;53.016;-2.260;2022-12-05T03:23:16;13.70;;;5.20;;
59306;SDS011;47983;53.016;-2.260;2022-12-05T03:25:52;9.25;;;4.97;;
59306;SDS011;47983;53.016;-2.260;2022-12-05T03:28:35;10.90;;;4.47;;
59306;SDS011;47983;53.016;-2.260;2022-12-05T03:31:21;10.02;;;4.95;;
59306;SDS011;47983;53.016;-2.260;2022-12-05T03:33:58;10.00;;;5.65;;
59306;SDS011;47983;53.016;-2.260;2022-12-05T03:36:31;14.65;;;6.15;;
59306;SDS011;47983;53.016;-2.260;2022-12-05T03:39:07;11.48;;;5.45;;
59306;SDS011;47983;53.016;-2.260;2022-12-05T03:41:40;12.13;;;5.65;;
59306;SDS011;47983;53.016;-2.260;2022-12-05T03:44:18;12.32;;;4.50;;
59306;SDS011;47983;53.016;-2.260;2022-12-05T03:47:38;10.68;;;4.50;;
59306;SDS011;47983;53.016;-2.260;2022-12-05T03:49:49;16.80;;;4.78;;
59306;SDS011;47983;53.016;-2.260;2022-12-05T03:55:41;10.93;;;4.32;;
59306;SDS011;47983;53.016;-2.260;2022-12-05T03:58:21;8.25;;;4.32;;
59306;SDS011;47983;53.016;-2.260;2022-12-05T04:01:11;9.60;;;4.60;;
59306;SDS011;47983;53.016;-2.260;2022-12-05T04:03:43;16.10;;;4.75;;
59306;SDS011;47983;53.016;-2.260;2022-12-05T04:06:28;17.20;;;5.43;;
59306;SDS011;47983;53.016;-2.260;2022-12-05T04:09:03;12.93;;;5.30;;
59306;SDS011;47983;53.016;-2.260;2022-12-05T04:11:44;12.73;;;5.40;;
59306;SDS011;47983;53.016;-2.260;2022-12-05T04:14:18;14.25;;;5.43;;
59306;SDS011;47983;53.016;-2.260;2022-12-05T04:17:07;15.00;;;5.47;;
59306;SDS011;47983;53.016;-2.260;2022-12-05T04:19:46;12.32;;;4.85;;
59306;SDS011;47983;53.016;-2.260;2022-12-05T04:22:35;14.32;;;4.72;;
59306;SDS011;47983;53.016;-2.260;2022-12-05T04:25:04;13.25;;;4.18;;
59306;SDS011;47983;53.016;-2.260;2022-12-05T04:28:04;12.30;;;4.20;;
59306;SDS011;47983;53.016;-2.260;2022-12-05T04:30:49;7.93;;;4.40;;
59306;SDS011;47983;53.016;-2.260;2022-12-05T04:35:49;11.38;;;4.18;;
59306;SDS011;47983;53.016;-2.260;2022-12-05T04:40:59;10.93;;;4.15;;
59306;SDS011;47983;53.016;-2.260;2022-12-05T04:43:29;9.13;;;4.65;;
59306;SDS011;47983;53.016;-2.260;2022-12-05T04:46:02;15.00;;;4.85;;
59306;SDS011;47983;53.016;-2.260;2022-12-05T04:48:34;11.98;;;4.40;;
59306;SDS011;47983;53.016;-2.260;2022-12-05T04:51:08;8.23;;;4.38;;
59306;SDS011;47983;53.016;-2.260;2022-12-05T04:53:42;17.10;;;4.95;;
59306;SDS011;47983;53.016;-2.260;2022-12-05T04:58:42;7.97;;;3.95;;
59306;SDS011;47983;53.016;-2.260;2022-12-05T05:01:21;7.82;;;3.42;;
59306;SDS011;47983;53.016;-2.260;2022-12-05T05:04:05;11.18;;;3.55;;
59306;SDS011;47983;53.016;-2.260;2022-12-05T05:06:39;9.68;;;4.00;;
59306;SDS011;47983;53.016;-2.260;2022-12-05T05:09:08;10.32;;;4.03;;
59306;SDS011;47983;53.016;-2.260;2022-12-05T05:11:36;9.80;;;3.60;;
59306;SDS011;47983;53.016;-2.260;2022-12-05T05:14:04;8.35;;;3.13;;
59306;SDS011;47983;53.016;-2.260;2022-12-05T05:16:33;11.23;;;3.40;;
59306;SDS011;47983;53.016;-2.260;2022-12-05T05:19:05;11.75;;;3.15;;
59306;SDS011;47983;53.016;-2.260;2022-12-05T05:21:36;6.80;;;2.90;;
59306;SDS011;47983;53.016;-2.260;2022-12-05T05:24:06;8.95;;;3.30;;
59306;SDS011;47983;53.016;-2.260;2022-12-05T05:26:36;6.63;;;3.30;;
59306;SDS011;47983;53.016;-2.260;2022-12-05T05:29:05;8.25;;;2.95;;
59306;SDS011;47983;53.016;-2.260;2022-12-05T05:31:33;11.93;;;3.25;;
59306;SDS011;47983;53.016;-2.260;2022-12-05T05:34:02;6.38;;;3.42;;
59306;SDS011;47983;53.016;-2.260;2022-12-05T05:36:36;6.18;;;3.22;;
59306;SDS011;47983;53.016;-2.260;2022-12-05T05:39:04;9.52;;;3.13;;
59306;SDS011;47983;53.016;-2.260;2022-12-05T05:41:33;18.92;;;3.60;;
59306;SDS011;47983;53.016;-2.260;2022-12-05T05:44:02;5.03;;;2.92;;
59306;SDS011;47983;53.016;-2.260;2022-12-05T05:46:31;5.90;;;3.15;;
59306;SDS011;47983;53.016;-2.260;2022-12-05T05:51:28;5.32;;;2.38;;
59306;SDS011;47983;53.016;-2.260;2022-12-05T05:53:56;8.00;;;2.78;;
59306;SDS011;47983;53.016;-2.260;2022-12-05T05:56:25;4.60;;;2.40;;
59306;SDS011;47983;53.016;-2.260;2022-12-05T05:58:55;5.93;;;2.20;;
59306;SDS011;47983;53.016;-2.260;2022-12-05T06:01:24;7.50;;;2.55;;
59306;SDS011;47983;53.016;-2.260;2022-12-05T06:03:52;5.78;;;2.55;;
59306;SDS011;47983;53.016;-2.260;2022-12-05T06:06:20;8.73;;;2.80;;
59306;SDS011;47983;53.016;-2.260;2022-12-05T06:08:48;7.47;;;2.80;;
59306;SDS011;47983;53.016;-2.260;2022-12-05T06:11:17;8.30;;;2.38;;
59306;SDS011;47983;53.016;-2.260;2022-12-05T06:13:53;4.57;;;1.95;;
59306;SDS011;47983;53.016;-2.260;2022-12-05T06:16:22;7.65;;;2.50;;
59306;SDS011;47983;53.016;-2.260;2022-12-05T06:18:50;5.00;;;2.35;;
59306;SDS011;47983;53.016;-2.260;2022-12-05T06:21:19;4.00;;;2.00;;
59306;SDS011;47983;53.016;-2.260;2022-12-05T06:23:46;8.13;;;1.88;;
59306;SDS011;47983;53.016;-2.260;2022-12-05T06:26:16;10.07;;;3.67;;
59306;SDS011;47983;53.016;-2.260;2022-12-05T06:28:45;9.68;;;2.67;;
59306;SDS011;47983;53.016;-2.260;2022-12-05T06:31:14;8.30;;;2.67;;
59306;SDS011;47983;53.016;-2.260;2022-12-05T06:33:44;10.48;;;2.47;;
59306;SDS011;47983;53.016;-2.260;2022-12-05T06:36:13;7.57;;;2.20;;
59306;SDS011;47983;53.016;-2.260;2022-12-05T06:38:42;9.90;;;2.33;;
59306;SDS011;47983;53.016;-2.260;2022-12-05T06:41:11;8.40;;;2.28;;
59306;SDS011;47983;53.016;-2.260;2022-12-05T06:43:41;15.52;;;2.78;;
59306;SDS011;47983;53.016;-2.260;2022-12-05T06:46:10;11.82;;;3.72;;
59306;SDS011;47983;53.016;-2.260;2022-12-05T06:48:38;9.27;;;2.10;;
59306;SDS011;47983;53.016;-2.260;2022-12-05T06:51:08;9.77;;;2.13;;
59306;SDS011;47983;53.016;-2.260;2022-12-05T06:53:37;8.60;;;2.40;;
59306;SDS011;47983;53.016;-2.260;2022-12-05T06:56:06;6.80;;;1.90;;
59306;SDS011;47983;53.016;-2.260;2022-12-05T06:58:46;6.32;;;1.98;;
59306;SDS011;47983;53.016;-2.260;2022-12-05T07:01:16;6.45;;;2.50;;
59306;SDS011;47983;53.016;-2.260;2022-12-05T07:04:05;11.82;;;2.85;;
59306;SDS011;47983;53.016;-2.260;2022-12-05T07:06:34;9.15;;;2.92;;
59306;SDS011;47983;53.016;-2.260;2022-12-05T07:09:02;5.95;;;2.70;;
59306;SDS011;47983;53.016;-2.260;2022-12-05T07:11:31;7.95;;;3.30;;
59306;SDS011;47983;53.016;-2.260;2022-12-05T07:13:59;5.80;;;2.50;;
59306;SDS011;47983;53.016;-2.260;2022-12-05T07:16:40;6.88;;;3.13;;
59306;SDS011;47983;53.016;-2.260;2022-12-05T07:19:09;4.68;;;2.78;;
59306;SDS011;47983;53.016;-2.260;2022-12-05T07:21:37;14.83;;;4.20;;
59306;SDS011;47983;53.016;-2.260;2022-12-05T07:24:05;9.38;;;3.00;;
59306;SDS011;47983;53.016;-2.260;2022-12-05T07:26:32;8.10;;;2.45;;
59306;SDS011;47983;53.016;-2.260;2022-12-05T07:29:00;8.18;;;2.20;;
59306;SDS011;47983;53.016;-2.260;2022-12-05T07:31:28;7.95;;;3.00;;
59306;SDS011;47983;53.016;-2.260;2022-12-05T07:33:55;11.73;;;2.83;;
59306;SDS011;47983;53.016;-2.260;2022-12-05T07:36:23;9.30;;;2.50;;
59306;SDS011;47983;53.016;-2.260;2022-12-05T07:38:55;7.10;;;2.42;;
59306;SDS011;47983;53.016;-2.260;2022-12-05T07:41:24;5.47;;;2.15;;
59306;SDS011;47983;53.016;-2.260;2022-12-05T07:43:54;6.22;;;2.45;;
59306;SDS011;47983;53.016;-2.260;2022-12-05T07:48:53;5.72;;;2.38;;
59306;SDS011;47983;53.016;-2.260;2022-12-05T07:51:21;9.73;;;2.65;;
59306;SDS011;47983;53.016;-2.260;2022-12-05T07:53:49;5.32;;;2.42;;
59306;SDS011;47983;53.016;-2.260;2022-12-05T07:56:17;10.80;;;1.90;;
59306;SDS011;47983;53.016;-2.260;2022-12-05T07:58:46;5.35;;;2.40;;
59306;SDS011;47983;53.016;-2.260;2022-12-05T08:01:18;7.38;;;2.40;;
59306;SDS011;47983;53.016;-2.260;2022-12-05T08:03:48;6.35;;;2.28;;
59306;SDS011;47983;53.016;-2.260;2022-12-05T08:06:19;4.50;;;2.35;;
59306;SDS011;47983;53.016;-2.260;2022-12-05T08:08:48;4.70;;;2.22;;
59306;SDS011;47983;53.016;-2.260;2022-12-05T08:11:18;13.00;;;3.08;;
59306;SDS011;47983;53.016;-2.260;2022-12-05T08:13:48;5.65;;;2.28;;
59306;SDS011;47983;53.016;-2.260;2022-12-05T08:16:17;7.50;;;2.33;;
59306;SDS011;47983;53.016;-2.260;2022-12-05T08:18:46;6.60;;;2.42;;
59306;SDS011;47983;53.016;-2.260;2022-12-05T08:21:15;5.93;;;2.53;;
59306;SDS011;47983;53.016;-2.260;2022-12-05T08:23:45;4.20;;;2.13;;
59306;SDS011;47983;53.016;-2.260;2022-12-05T08:26:14;4.95;;;2.78;;
59306;SDS011;47983;53.016;-2.260;2022-12-05T08:28:44;5.00;;;2.33;;
59306;SDS011;47983;53.016;-2.260;2022-12-05T08:31:13;7.72;;;2.83;;
59306;SDS011;47983;53.016;-2.260;2022-12-05T08:33:43;7.65;;;2.55;;
59306;SDS011;47983;53.016;-2.260;2022-12-05T08:36:12;7.50;;;2.42;;
59306;SDS011;47983;53.016;-2.260;2022-12-05T08:38:41;7.70;;;2.75;;
59306;SDS011;47983;53.016;-2.260;2022-12-05T08:41:11;7.00;;;2.78;;
59306;SDS011;47983;53.016;-2.260;2022-12-05T08:43:41;7.20;;;2.50;;
59306;SDS011;47983;53.016;-2.260;2022-12-05T08:46:09;6.15;;;2.10;;
59306;SDS011;47983;53.016;-2.260;2022-12-05T08:48:38;5.85;;;2.10;;
59306;SDS011;47983;53.016;-2.260;2022-12-05T08:51:07;5.72;;;2.10;;
59306;SDS011;47983;53.016;-2.260;2022-12-05T08:53:36;8.93;;;2.35;;
59306;SDS011;47983;53.016;-2.260;2022-12-05T08:56:10;6.30;;;1.65;;
59306;SDS011;47983;53.016;-2.260;2022-12-05T08:58:38;4.15;;;1.75;;
59306;SDS011;47983;53.016;-2.260;2022-12-05T09:01:07;5.63;;;1.85;;
59306;SDS011;47983;53.016;-2.260;2022-12-05T09:03:35;8.82;;;2.17;;
59306;SDS011;47983;53.016;-2.260;2022-12-05T09:06:13;5.72;;;2.40;;
59306;SDS011;47983;53.016;-2.260;2022-12-05T09:08:43;4.03;;;1.88;;
59306;SDS011;47983;53.016;-2.260;2022-12-05T09:11:12;7.07;;;2.15;;
59306;SDS011;47983;53.016;-2.260;2022-12-05T09:13:45;3.75;;;2.20;;
59306;SDS011;47983;53.016;-2.260;2022-12-05T09:16:18;10.00;;;2.10;;
59306;SDS011;47983;53.016;-2.260;2022-12-05T09:18:48;4.18;;;2.08;;
59306;SDS011;47983;53.016;-2.260;2022-12-05T09:21:17;7.50;;;2.35;;
59306;SDS011;47983;53.016;-2.260;2022-12-05T09:23:47;7.03;;;2.25;;
59306;SDS011;47983;53.016;-2.260;2022-12-05T09:26:17;6.50;;;3.05;;
59306;SDS011;47983;53.016;-2.260;2022-12-05T09:28:49;10.23;;;2.58;;
59306;SDS011;47983;53.016;-2.260;2022-12-05T09:31:21;17.90;;;4.22;;
59306;SDS011;47983;53.016;-2.260;2022-12-05T09:33:51;9.48;;;2.90;;
59306;SDS011;47983;53.016;-2.260;2022-12-05T09:36:20;8.07;;;2.92;;
59306;SDS011;47983;53.016;-2.260;2022-12-05T09:38:50;8.48;;;2.58;;
59306;SDS011;47983;53.016;-2.260;2022-12-05T09:50:00;6.57;;;2.85;;
59306;SDS011;47983;53.016;-2.260;2022-12-05T09:52:49;6.78;;;2.92;;
59306;SDS011;47983;53.016;-2.260;2022-12-05T09:58:42;9.95;;;2.60;;
59306;SDS011;47983;53.016;-2.260;2022-12-05T10:01:21;8.73;;;2.70;;
59306;SDS011;47983;53.016;-2.260;2022-12-05T10:06:39;9.80;;;2.78;;
59306;SDS011;47983;53.016;-2.260;2022-12-05T10:09:24;8.23;;;2.50;;
59306;SDS011;47983;53.016;-2.260;2022-12-05T10:12:03;5.43;;;3.00;;
59306;SDS011;47983;53.016;-2.260;2022-12-05T10:17:38;12.05;;;2.75;;
59306;SDS011;47983;53.016;-2.260;2022-12-05T10:20:10;10.07;;;2.13;;
59306;SDS011;47983;53.016;-2.260;2022-12-05T10:22:43;11.32;;;2.40;;
59306;SDS011;47983;53.016;-2.260;2022-12-05T10:25:20;5.93;;;2.00;;
59306;SDS011;47983;53.016;-2.260;2022-12-05T10:27:51;4.13;;;2.55;;
59306;SDS011;47983;53.016;-2.260;2022-12-05T10:30:22;5.65;;;2.58;;
59306;SDS011;47983;53.016;-2.260;2022-12-05T10:32:58;9.15;;;3.00;;
59306;SDS011;47983;53.016;-2.260;2022-12-05T10:35:36;7.50;;;2.38;;
59306;SDS011;47983;53.016;-2.260;2022-12-05T10:38:12;6.82;;;2.85;;
59306;SDS011;47983;53.016;-2.260;2022-12-05T10:40:51;5.32;;;2.53;;
59306;SDS011;47983;53.016;-2.260;2022-12-05T10:43:24;8.90;;;2.78;;
59306;SDS011;47983;53.016;-2.260;2022-12-05T10:45:55;10.57;;;3.05;;
59306;SDS011;47983;53.016;-2.260;2022-12-05T10:48:24;9.32;;;3.45;;
59306;SDS011;47983;53.016;-2.260;2022-12-05T10:50:54;9.85;;;3.00;;
59306;SDS011;47983;53.016;-2.260;2022-12-05T10:53:25;6.07;;;2.92;;
59306;SDS011;47983;53.016;-2.260;2022-12-05T10:59:03;5.85;;;2.85;;
59306;SDS011;47983;53.016;-2.260;2022-12-05T11:01:32;6.00;;;2.28;;
59306;SDS011;47983;53.016;-2.260;2022-12-05T11:06:46;6.38;;;2.55;;
59306;SDS011;47983;53.016;-2.260;2022-12-05T11:09:19;6.50;;;2.17;;
59306;SDS011;47983;53.016;-2.260;2022-12-05T11:11:59;8.00;;;2.83;;
59306;SDS011;47983;53.016;-2.260;2022-12-05T11:14:54;7.07;;;2.53;;
59306;SDS011;47983;53.016;-2.260;2022-12-05T11:17:49;10.98;;;2.97;;
59306;SDS011;47983;53.016;-2.260;2022-12-05T11:22:45;7.93;;;2.78;;
59306;SDS011;47983;53.016;-2.260;2022-12-05T11:25:32;10.13;;;2.60;;
59306;SDS011;47983;53.016;-2.260;2022-12-05T11:33:30;6.65;;;2.60;;
59306;SDS011;47983;53.016;-2.260;2022-12-05T11:38:46;4.88;;;2.33;;
59306;SDS011;47983;53.016;-2.260;2022-12-05T11:46:50;7.72;;;2.47;;
59306;SDS011;47983;53.016;-2.260;2022-12-05T11:49:42;9.88;;;2.42;;
59306;SDS011;47983;53.016;-2.260;2022-12-05T11:52:34;8.98;;;2.75;;
59306;SDS011;47983;53.016;-2.260;2022-12-05T11:55:20;13.20;;;2.75;;
59306;SDS011;47983;53.016;-2.260;2022-12-05T12:03:38;7.45;;;2.10;;
59306;SDS011;47983;53.016;-2.260;2022-12-05T12:06:24;5.47;;;2.83;;
59306;SDS011;47983;53.016;-2.260;2022-12-05T12:17:13;9.20;;;2.70;;
59306;SDS011;47983;53.016;-2.260;2022-12-05T12:22:42;7.68;;;2.35;;
59306;SDS011;47983;53.016;-2.260;2022-12-05T12:25:25;9.05;;;2.80;;
59306;SDS011;47983;53.016;-2.260;2022-12-05T12:28:05;8.90;;;3.20;;
59306;SDS011;47983;53.016;-2.260;2022-12-05T12:31:05;7.47;;;3.17;;
59306;SDS011;47983;53.016;-2.260;2022-12-05T12:33:51;7.32;;;2.88;;
59306;SDS011;47983;53.016;-2.260;2022-12-05T12:36:34;6.10;;;2.72;;
59306;SDS011;47983;53.016;-2.260;2022-12-05T12:47:18;12.95;;;2.78;;
59306;SDS011;47983;53.016;-2.260;2022-12-05T12:58:47;7.40;;;3.10;;
59306;SDS011;47983;53.016;-2.260;2022-12-05T13:04:12;14.65;;;3.17;;
59306;SDS011;47983;53.016;-2.260;2022-12-05T13:06:48;9.50;;;2.88;;
59306;SDS011;47983;53.016;-2.260;2022-12-05T13:09:25;10.95;;;2.78;;
59306;SDS011;47983;53.016;-2.260;2022-12-05T13:12:04;7.40;;;2.17;;
59306;SDS011;47983;53.016;-2.260;2022-12-05T13:14:36;6.75;;;2.58;;
59306;SDS011;47983;53.016;-2.260;2022-12-05T13:17:09;8.30;;;2.42;;
59306;SDS011;47983;53.016;-2.260;2022-12-05T13:19:48;9.07;;;2.58;;
59306;SDS011;47983;53.016;-2.260;2022-12-05T13:22:18;7.63;;;2.50;;
59306;SDS011;47983;53.016;-2.260;2022-12-05T13:24:49;11.68;;;2.83;;
59306;SDS011;47983;53.016;-2.260;2022-12-05T13:27:18;9.95;;;2.45;;
59306;SDS011;47983;53.016;-2.260;2022-12-05T13:29:49;7.82;;;2.60;;
59306;SDS011;47983;53.016;-2.260;2022-12-05T13:32:28;4.70;;;2.60;;
59306;SDS011;47983;53.016;-2.260;2022-12-05T13:38:04;7.32;;;3.03;;
59306;SDS011;47983;53.016;-2.260;2022-12-05T13:41:02;5.97;;;2.58;;
59306;SDS011;47983;53.016;-2.260;2022-12-05T13:43:50;6.38;;;2.92;;
59306;SDS011;47983;53.016;-2.260;2022-12-05T13:46:32;4.13;;;2.53;;
59306;SDS011;47983;53.016;-2.260;2022-12-05T13:49:02;8.07;;;3.03;;
59306;SDS011;47983;53.016;-2.260;2022-12-05T13:51:35;6.13;;;3.05;;
59306;SDS011;47983;53.016;-2.260;2022-12-05T13:57:00;10.80;;;3.00;;
59306;SDS011;47983;53.016;-2.260;2022-12-05T14:07:44;13.88;;;2.83;;
59306;SDS011;47983;53.016;-2.260;2022-12-05T14:10:14;9.30;;;3.03;;
59306;SDS011;47983;53.016;-2.260;2022-12-05T14:20:34;6.80;;;3.10;;
59306;SDS011;47983;53.016;-2.260;2022-12-05T14:36:52;5.55;;;2.40;;
59306;SDS011;47983;53.016;-2.260;2022-12-05T14:39:21;13.07;;;2.92;;
59306;SDS011;47983;53.016;-2.260;2022-12-05T14:41:56;5.10;;;1.95;;
59306;SDS011;47983;53.016;-2.260;2022-12-05T14:46:58;7.97;;;3.35;;
59306;SDS011;47983;53.016;-2.260;2022-12-05T14:49:33;8.90;;;2.60;;
59306;SDS011;47983;53.016;-2.260;2022-12-05T14:52:22;9.48;;;2.97;;
59306;SDS011;47983;53.016;-2.260;2022-12-05T14:54:52;9.95;;;2.58;;
59306;SDS011;47983;53.016;-2.260;2022-12-05T14:57:24;5.93;;;2.58;;
59306;SDS011;47983;53.016;-2.260;2022-12-05T14:59:53;6.47;;;2.53;;
59306;SDS011;47983;53.016;-2.260;2022-12-05T15:02:29;9.00;;;2.90;;
59306;SDS011;47983;53.016;-2.260;2022-12-05T15:05:19;7.63;;;2.33;;
59306;SDS011;47983;53.016;-2.260;2022-12-05T15:07:54;10.32;;;2.63;;
59306;SDS011;47983;53.016;-2.260;2022-12-05T15:10:27;6.43;;;2.33;;
59306;SDS011;47983;53.016;-2.260;2022-12-05T15:13:02;6.75;;;2.95;;
59306;SDS011;47983;53.016;-2.260;2022-12-05T15:15:41;6.13;;;2.60;;
59306;SDS011;47983;53.016;-2.260;2022-12-05T15:18:22;6.03;;;2.65;;
59306;SDS011;47983;53.016;-2.260;2022-12-05T15:21:13;7.32;;;3.28;;
59306;SDS011;47983;53.016;-2.260;2022-12-05T15:24:13;8.80;;;4.05;;
59306;SDS011;47983;53.016;-2.260;2022-12-05T15:26:49;4.28;;;2.65;;
59306;SDS011;47983;53.016;-2.260;2022-12-05T15:31:59;5.65;;;3.47;;
59306;SDS011;47983;53.016;-2.260;2022-12-05T15:37:08;5.15;;;2.65;;
59306;SDS011;47983;53.016;-2.260;2022-12-05T15:39:53;7.28;;;3.13;;
59306;SDS011;47983;53.016;-2.260;2022-12-05T15:45:24;8.68;;;3.63;;
59306;SDS011;47983;53.016;-2.260;2022-12-05T15:48:09;6.75;;;4.30;;
59306;SDS011;47983;53.016;-2.260;2022-12-05T15:50:39;10.10;;;3.20;;
59306;SDS011;47983;53.016;-2.260;2022-12-05T15:58:48;6.05;;;3.47;;
59306;SDS011;47983;53.016;-2.260;2022-12-05T16:01:24;7.15;;;3.10;;
59306;SDS011;47983;53.016;-2.260;2022-12-05T16:06:33;9.70;;;3.42;;
59306;SDS011;47983;53.016;-2.260;2022-12-05T16:09:17;6.13;;;3.13;;
59306;SDS011;47983;53.016;-2.260;2022-12-05T16:11:50;5.72;;;2.95;;
59306;SDS011;47983;53.016;-2.260;2022-12-05T16:14:24;7.18;;;3.13;;
59306;SDS011;47983;53.016;-2.260;2022-12-05T16:17:18;12.85;;;3.50;;
59306;SDS011;47983;53.016;-2.260;2022-12-05T16:19:46;7.78;;;4.22;;
59306;SDS011;47983;53.016;-2.260;2022-12-05T16:22:24;9.10;;;3.33;;
59306;SDS011;47983;53.016;-2.260;2022-12-05T16:24:56;14.38;;;4.65;;
59306;SDS011;47983;53.016;-2.260;2022-12-05T16:30:23;11.85;;;4.55;;
59306;SDS011;47983;53.016;-2.260;2022-12-05T16:33:02;9.13;;;3.63;;
59306;SDS011;47983;53.016;-2.260;2022-12-05T16:35:38;10.68;;;5.30;;
59306;SDS011;47983;53.016;-2.260;2022-12-05T16:40:53;8.60;;;3.60;;
59306;SDS011;47983;53.016;-2.260;2022-12-05T16:43:24;12.40;;;4.40;;
59306;SDS011;47983;53.016;-2.260;2022-12-05T16:45:56;8.43;;;4.43;;
59306;SDS011;47983;53.016;-2.260;2022-12-05T16:48:40;9.38;;;4.15;;
59306;SDS011;47983;53.016;-2.260;2022-12-05T16:51:29;10.75;;;4.97;;
59306;SDS011;47983;53.016;-2.260;2022-12-05T16:54:07;12.38;;;4.72;;
59306;SDS011;47983;53.016;-2.260;2022-12-05T16:56:36;10.50;;;4.97;;
59306;SDS011;47983;53.016;-2.260;2022-12-05T16:59:05;11.13;;;4.95;;
59306;SDS011;47983;53.016;-2.260;2022-12-05T17:01:39;14.68;;;4.78;;
59306;SDS011;47983;53.016;-2.260;2022-12-05T17:04:08;10.23;;;4.68;;
59306;SDS011;47983;53.016;-2.260;2022-12-05T17:09:05;13.02;;;4.00;;
59306;SDS011;47983;53.016;-2.260;2022-12-05T17:11:33;16.67;;;6.35;;
59306;SDS011;47983;53.016;-2.260;2022-12-05T17:14:02;16.55;;;5.80;;
59306;SDS011;47983;53.016;-2.260;2022-12-05T17:16:30;11.27;;;5.03;;
59306;SDS011;47983;53.016;-2.260;2022-12-05T17:18:58;16.55;;;4.78;;
59306;SDS011;47983;53.016;-2.260;2022-12-05T17:21:28;16.15;;;4.88;;
59306;SDS011;47983;53.016;-2.260;2022-12-05T17:23:58;15.25;;;5.82;;
59306;SDS011;47983;53.016;-2.260;2022-12-05T17:26:26;11.15;;;3.70;;
59306;SDS011;47983;53.016;-2.260;2022-12-05T17:28:54;12.25;;;4.60;;
59306;SDS011;47983;53.016;-2.260;2022-12-05T17:31:22;14.70;;;4.45;;
59306;SDS011;47983;53.016;-2.260;2022-12-05T17:36:19;7.25;;;3.55;;
59306;SDS011;47983;53.016;-2.260;2022-12-05T17:38:47;10.80;;;4.18;;
59306;SDS011;47983;53.016;-2.260;2022-12-05T17:41:16;12.13;;;2.97;;
59306;SDS011;47983;53.016;-2.260;2022-12-05T17:43:46;8.82;;;4.05;;
59306;SDS011;47983;53.016;-2.260;2022-12-05T17:46:14;6.13;;;3.53;;
59306;SDS011;47983;53.016;-2.260;2022-12-05T17:48:45;10.15;;;3.90;;
59306;SDS011;47983;53.016;-2.260;2022-12-05T17:51:13;8.90;;;3.40;;
59306;SDS011;47983;53.016;-2.260;2022-12-05T17:53:41;9.80;;;3.50;;
59306;SDS011;47983;53.016;-2.260;2022-12-05T17:56:10;6.78;;;3.40;;
59306;SDS011;47983;53.016;-2.260;2022-12-05T17:58:39;9.23;;;3.35;;
59306;SDS011;47983;53.016;-2.260;2022-12-05T18:01:09;10.70;;;4.20;;
59306;SDS011;47983;53.016;-2.260;2022-12-05T18:03:43;14.85;;;3.67;;
59306;SDS011;47983;53.016;-2.260;2022-12-05T18:06:11;6.22;;;2.75;;
59306;SDS011;47983;53.016;-2.260;2022-12-05T18:08:39;6.22;;;3.72;;
59306;SDS011;47983;53.016;-2.260;2022-12-05T18:11:12;4.35;;;2.85;;
59306;SDS011;47983;53.016;-2.260;2022-12-05T18:13:40;11.55;;;2.42;;
59306;SDS011;47983;53.016;-2.260;2022-12-05T18:16:08;11.88;;;3.25;;
59306;SDS011;47983;53.016;-2.260;2022-12-05T18:18:36;4.47;;;2.00;;